createdAt,value
2023-04-02T04:33:44.140Z,771.70
2023-04-02T04:36:27.822Z,771.47
2023-04-02T04:38:59.434Z,761.20
2023-04-02T04:41:38.647Z,768.28
2023-04-02T04:44:49.232Z,769.08
2023-04-02T04:47:20.862Z,761.20
2023-04-02T04:49:59.431Z,760.45
2023-04-02T04:52:38.699Z,770.03
2023-04-02T04:55:26.881Z,768.38
2023-04-02T04:58:08.290Z,767.95
2023-04-02T05:00:55.141Z,773.47
2023-04-02T05:03:28.112Z,768.30
2023-04-02T05:06:01.227Z,770.90
2023-04-02T05:08:33.721Z,770.03
2023-04-02T05:11:05.249Z,769.42
2023-04-02T05:13:35.975Z,768.63
2023-04-02T05:16:16.307Z,771.63
2023-04-02T05:19:04.293Z,769.97
2023-04-02T05:21:57.568Z,765.72
2023-04-02T05:24:56.455Z,760.20
2023-04-02T05:27:43.681Z,763.67
2023-04-02T05:30:25.432Z,766.47
2023-04-02T05:33:07.830Z,762.90
2023-04-02T05:35:37.229Z,759.22
2023-04-02T05:38:06.555Z,760.97
2023-04-02T05:40:39.932Z,760.13
2023-04-02T05:43:10.976Z,755.60
2023-04-02T05:45:41.213Z,760.53
2023-04-02T05:48:19.432Z,759.70
2023-04-02T05:50:51.508Z,761.83
2023-04-02T05:53:32.732Z,764.03
2023-04-02T05:56:19.002Z,768.70
2023-04-02T05:58:57.955Z,765.72
2023-04-02T06:01:55.947Z,764.17
2023-04-02T06:04:31.325Z,770.63
2023-04-02T06:07:18.049Z,771.05
2023-04-02T06:10:05.005Z,773.30
2023-04-02T06:12:34.389Z,779.03
2023-04-02T06:15:01.297Z,782.95
2023-04-02T06:17:28.418Z,772.15
2023-04-02T06:19:58.660Z,771.90
2023-04-02T06:22:39.585Z,769.25
2023-04-02T06:25:15.094Z,771.08
2023-04-02T06:27:43.155Z,779.07
2023-04-02T06:30:24.563Z,776.67
2023-04-02T06:32:51.229Z,785.53
2023-04-02T06:35:17.948Z,783.10
2023-04-02T06:37:50.072Z,776.72
2023-04-02T06:40:35.603Z,779.33
2023-04-02T06:43:17.101Z,787.73
2023-04-02T06:45:48.338Z,779.22
2023-04-02T06:48:17.510Z,773.90
2023-04-02T06:50:55.505Z,776.70
2023-04-02T06:53:35.649Z,783.70
2023-04-02T06:56:21.815Z,779.33
2023-04-02T06:58:48.522Z,776.50
2023-04-02T07:01:21.564Z,783.28
2023-04-02T07:03:48.357Z,786.60
2023-04-02T07:06:17.928Z,798.15
2023-04-02T07:08:44.817Z,799.80
2023-04-02T07:11:18.249Z,807.50
2023-04-02T07:13:47.786Z,819.78
2023-04-02T07:16:20.708Z,816.45
2023-04-02T07:18:48.298Z,808.80
2023-04-02T07:21:15.569Z,820.63
2023-04-02T07:23:42.692Z,814.63
2023-04-02T07:26:14.810Z,824.65
2023-04-02T07:28:42.226Z,820.58
2023-04-02T07:31:19.168Z,819.75
2023-04-02T07:33:46.421Z,818.17
2023-04-02T07:36:18.831Z,822.20
2023-04-02T07:38:45.732Z,830.25
2023-04-02T07:41:13.049Z,825.53
2023-04-02T07:43:41.039Z,828.75
2023-04-02T07:46:09.228Z,830.83
2023-04-02T07:48:36.217Z,861.80
2023-04-02T07:51:03.386Z,857.30
2023-04-02T07:53:35.554Z,874.55
2023-04-02T07:56:03.817Z,873.97
2023-04-02T07:58:32.093Z,882.90
2023-04-02T08:00:59.824Z,876.30
2023-04-02T08:03:26.822Z,888.08
2023-04-02T08:05:56.042Z,900.37
2023-04-02T08:08:24.274Z,900.72
2023-04-02T08:10:51.556Z,913.25
2023-04-02T08:13:18.852Z,921.75
2023-04-02T08:15:45.742Z,944.60
2023-04-02T08:18:12.510Z,968.35
2023-04-02T08:20:39.519Z,973.07
2023-04-02T08:23:15.325Z,987.45
2023-04-02T08:25:42.038Z,990.60
2023-04-02T08:28:08.774Z,993.55
2023-04-02T08:30:35.931Z,991.42
2023-04-02T08:33:02.656Z,994.60
2023-04-02T08:35:29.763Z,999.00
2023-04-02T08:37:56.462Z,996.00
2023-04-02T08:40:31.862Z,986.88
2023-04-02T08:43:25.338Z,973.75
2023-04-02T08:46:06.944Z,974.75
2023-04-02T08:48:36.938Z,965.85
2023-04-02T08:51:06.230Z,975.88
2023-04-02T08:53:37.183Z,976.45
2023-04-02T08:56:17.796Z,963.90
2023-04-02T08:58:53.523Z,935.95
2023-04-02T09:01:41.544Z,951.00
2023-04-02T09:04:16.804Z,967.40
2023-04-02T09:06:43.954Z,970.38
2023-04-02T09:09:13.107Z,981.85
2023-04-02T09:11:48.677Z,980.20
2023-04-02T09:14:29.020Z,978.17
2023-04-02T09:17:01.870Z,972.75
2023-04-02T09:19:41.802Z,958.90
2023-04-02T09:22:22.428Z,945.20
2023-04-02T09:24:53.679Z,967.75
2023-04-02T09:27:29.878Z,965.85
2023-04-02T09:30:24.735Z,965.83
2023-04-02T09:32:54.051Z,974.75
2023-04-02T09:35:27.003Z,989.73
2023-04-02T09:38:23.392Z,999.30
2023-04-02T09:40:59.070Z,1013.88
2023-04-02T09:43:35.304Z,1019.10
2023-04-02T09:46:03.574Z,1027.63
2023-04-02T09:48:40.794Z,1028.88
2023-04-02T09:51:16.397Z,1037.82
2023-04-02T09:53:49.107Z,1039.90
2023-04-02T09:56:23.001Z,1035.32
2023-04-02T09:59:06.112Z,1037.32
2023-04-02T10:01:48.646Z,1029.10
2023-04-02T10:04:45.299Z,1010.20
2023-04-02T10:07:46.567Z,1002.13
2023-04-02T10:10:35.055Z,994.25
2023-04-02T10:13:06.963Z,984.70
2023-04-02T10:15:46.877Z,978.08
2023-04-02T10:18:21.541Z,974.67
2023-04-02T10:20:51.658Z,980.65
2023-04-02T10:23:19.383Z,950.78
2023-04-02T10:26:20.228Z,948.22
2023-04-02T10:29:13.286Z,969.28
2023-04-02T10:31:55.114Z,974.97
2023-04-02T10:34:33.666Z,988.55
2023-04-02T10:37:12.267Z,1000.90
2023-04-02T10:39:47.390Z,1002.17
2023-04-02T10:42:17.039Z,1014.15
2023-04-02T10:45:11.185Z,1001.95
2023-04-02T10:47:46.040Z,1010.00
2023-04-02T10:50:37.052Z,1015.63
2023-04-02T10:53:16.309Z,1009.03
2023-04-02T10:55:56.629Z,1010.72
2023-04-02T10:58:33.341Z,1035.55
2023-04-02T11:01:06.700Z,1065.32
2023-04-02T11:03:53.064Z,1080.90
2023-04-02T11:06:27.637Z,1094.68
2023-04-02T11:08:59.858Z,1094.88
2023-04-02T11:11:39.961Z,1093.65
2023-04-02T11:14:22.174Z,1082.07
2023-04-02T11:16:50.540Z,1070.28
2023-04-02T11:19:17.190Z,1062.38
2023-04-02T11:21:58.010Z,1057.75
2023-04-02T11:24:32.735Z,1066.85
2023-04-02T11:27:10.264Z,1072.35
2023-04-02T11:30:19.697Z,1074.07
2023-04-02T11:32:49.643Z,1070.68
2023-04-02T11:35:31.739Z,1064.57
2023-04-02T11:38:04.253Z,1065.00
2023-04-02T11:40:46.940Z,1067.57
2023-04-02T11:43:34.504Z,1076.50
2023-04-02T11:46:01.297Z,1088.85
2023-04-02T11:48:36.226Z,1091.57
2023-04-02T11:51:23.342Z,1102.38
2023-04-02T11:53:53.736Z,1096.22
2023-04-02T11:56:37.285Z,1102.63
2023-04-02T11:59:17.495Z,1087.57
2023-04-02T12:02:06.573Z,1089.68
2023-04-02T12:04:49.400Z,1082.20
2023-04-02T12:07:35.009Z,1083.22
2023-04-02T12:10:18.054Z,1077.57
2023-04-02T12:12:44.875Z,1074.90
2023-04-02T12:15:32.111Z,1077.13
2023-04-02T12:18:12.590Z,1074.63
2023-04-02T12:20:39.523Z,1068.00
2023-04-02T12:23:06.706Z,1062.22
2023-04-02T12:25:40.145Z,1058.10
2023-04-02T12:28:09.620Z,1049.43
2023-04-02T12:30:38.245Z,1049.00
2023-04-02T12:33:30.518Z,1049.72
2023-04-02T12:35:59.516Z,1033.82
2023-04-02T12:38:33.333Z,1043.82
2023-04-02T12:41:03.663Z,1038.93
2023-04-02T12:43:35.630Z,1038.57
2023-04-02T12:46:08.412Z,1036.82
2023-04-02T12:48:35.906Z,1039.13
2023-04-02T12:51:04.022Z,1043.45
2023-04-02T12:53:39.271Z,1044.10
2023-04-02T12:56:08.211Z,1039.15
2023-04-02T12:58:42.824Z,1032.80
2023-04-02T13:01:31.506Z,1014.88
2023-04-02T13:04:12.190Z,1009.30
2023-04-02T13:06:41.469Z,1025.90
2023-04-02T13:09:29.818Z,1039.93
2023-04-02T13:11:56.916Z,1051.88
2023-04-02T13:14:25.578Z,1058.43
2023-04-02T13:16:52.277Z,1069.40
2023-04-02T13:19:31.114Z,1076.15
2023-04-02T13:22:02.765Z,1076.18
2023-04-02T13:24:31.908Z,1076.10
2023-04-02T13:27:03.570Z,1068.53
2023-04-02T13:29:32.145Z,1075.90
2023-04-02T13:32:05.266Z,1072.70
2023-04-02T13:34:32.247Z,1070.97
2023-04-02T13:36:59.335Z,1066.05
2023-04-02T13:39:27.057Z,1068.82
2023-04-02T13:42:02.445Z,1066.30
2023-04-02T13:44:31.521Z,1070.20
2023-04-02T13:46:58.758Z,1072.40
2023-04-02T13:49:26.527Z,1068.05
2023-04-02T13:51:59.323Z,1066.82
2023-04-02T13:54:55.822Z,1067.30
2023-04-02T13:57:22.482Z,1059.15
2023-04-02T13:59:49.486Z,1057.97
2023-04-02T14:02:18.831Z,1051.80
2023-04-02T14:04:50.975Z,1054.37
2023-04-02T14:07:25.960Z,1061.75
2023-04-02T14:10:07.547Z,1044.60
2023-04-02T14:12:52.561Z,1045.45
2023-04-02T14:15:19.118Z,1039.68
2023-04-02T14:17:58.060Z,1042.97
2023-04-02T14:20:35.046Z,1033.47
2023-04-02T14:23:21.248Z,1032.70
2023-04-02T14:26:04.348Z,1029.93
2023-04-02T14:28:41.771Z,1012.80
2023-04-02T14:31:31.519Z,1010.38
2023-04-02T14:34:16.699Z,1005.33
2023-04-02T14:36:51.086Z,1009.00
2023-04-02T14:39:32.634Z,1001.73
2023-04-02T14:42:06.626Z,998.97
2023-04-02T14:44:42.788Z,995.35
2023-04-02T14:47:23.218Z,994.58
2023-04-02T14:49:54.719Z,996.75
2023-04-02T14:52:23.941Z,987.60
2023-04-02T14:55:03.168Z,989.70
2023-04-02T14:57:40.853Z,986.38
2023-04-02T15:00:37.603Z,990.90
2023-04-02T15:03:24.803Z,983.97
2023-04-02T15:06:05.257Z,1000.05
2023-04-02T15:08:37.958Z,1000.83
2023-04-02T15:11:18.586Z,1010.17
2023-04-02T15:14:03.983Z,1014.67
2023-04-02T15:16:33.158Z,1022.40
2023-04-02T15:19:00.841Z,1029.50
2023-04-02T15:21:57.722Z,1036.90
2023-04-02T15:24:33.754Z,1036.30
2023-04-02T15:27:25.416Z,1042.75
2023-04-02T15:30:35.120Z,1033.93
2023-04-02T15:33:27.377Z,1035.00
2023-04-02T15:36:04.510Z,1030.22
2023-04-02T15:38:37.817Z,1024.57
2023-04-02T15:41:38.371Z,1034.63
2023-04-02T15:44:15.824Z,1025.15
2023-04-02T15:47:07.216Z,1017.28
2023-04-02T15:49:46.466Z,1022.90
2023-04-02T15:52:27.351Z,1006.20
2023-04-02T15:55:00.506Z,1001.33
2023-04-02T15:57:53.187Z,1001.80
2023-04-02T16:00:31.096Z,994.00
2023-04-02T16:03:25.351Z,994.65
2023-04-02T16:06:26.670Z,993.88
2023-04-02T16:09:11.726Z,1002.13
2023-04-02T16:11:39.447Z,999.97
2023-04-02T16:14:26.107Z,1006.08
2023-04-02T16:16:55.913Z,1022.22
2023-04-02T16:19:46.952Z,1017.67
2023-04-02T16:22:30.050Z,1012.40
2023-04-02T16:25:16.402Z,1019.15
2023-04-02T16:27:51.328Z,1023.50
2023-04-02T16:30:29.519Z,1024.57
2023-04-02T16:33:20.616Z,1019.70
2023-04-02T16:35:56.857Z,1005.70
2023-04-02T16:38:45.118Z,1004.85
2023-04-02T16:41:38.669Z,999.50
2023-04-02T16:44:26.479Z,995.22
2023-04-02T16:47:15.217Z,1000.80
2023-04-02T16:49:47.616Z,998.30
2023-04-02T16:52:23.038Z,994.85
2023-04-02T16:55:19.580Z,994.10
2023-04-02T16:57:58.193Z,985.85
2023-04-02T17:00:30.777Z,985.40
2023-04-02T17:03:15.519Z,987.13
2023-04-02T17:05:45.230Z,987.38
2023-04-02T17:08:45.635Z,986.80
2023-04-02T17:11:23.711Z,982.70
2023-04-02T17:14:05.759Z,987.58
2023-04-02T17:16:43.470Z,985.40
2023-04-02T17:19:12.811Z,979.97
2023-04-02T17:21:42.203Z,971.03
2023-04-02T17:24:19.125Z,981.15
2023-04-02T17:26:49.760Z,973.38
2023-04-02T17:29:21.592Z,971.75
2023-04-02T17:31:49.852Z,966.25
2023-04-02T17:34:18.504Z,962.70
2023-04-02T17:37:07.113Z,961.83
2023-04-02T17:39:42.539Z,960.05
2023-04-02T17:42:20.710Z,962.08
2023-04-02T17:45:32.156Z,957.00
2023-04-02T17:48:21.239Z,948.60
2023-04-02T17:51:00.314Z,951.90
2023-04-02T17:53:48.950Z,941.03
2023-04-02T17:56:29.643Z,935.20
2023-04-02T17:59:21.561Z,928.03
2023-04-02T18:02:13.128Z,927.15
2023-04-02T18:04:52.182Z,923.63
2023-04-02T18:07:29.426Z,929.38
2023-04-02T18:10:16.457Z,924.40
2023-04-02T18:12:57.945Z,922.42
2023-04-02T18:15:37.472Z,917.38
2023-04-02T18:18:26.589Z,916.58
2023-04-02T18:21:25.641Z,918.67
2023-04-02T18:24:20.893Z,915.25
2023-04-02T18:27:24.366Z,912.78
2023-04-02T18:30:00.212Z,919.45
2023-04-02T18:32:59.243Z,916.83
2023-04-02T18:35:33.342Z,915.60
2023-04-02T18:38:22.354Z,909.85
2023-04-02T18:41:06.333Z,913.47
2023-04-02T18:43:47.170Z,913.28
2023-04-02T18:46:33.811Z,911.70
2023-04-02T18:49:19.330Z,917.92
2023-04-02T18:51:50.215Z,916.42
2023-04-02T18:54:42.996Z,915.70
2023-04-02T18:57:14.567Z,909.30
2023-04-02T18:59:57.452Z,913.85
2023-04-02T19:02:42.640Z,921.95
2023-04-02T19:05:28.150Z,911.75
2023-04-02T19:08:02.372Z,911.63
2023-04-02T19:10:38.450Z,910.35
2023-04-02T19:13:18.996Z,914.05
2023-04-02T19:16:17.611Z,904.88
2023-04-02T19:19:07.756Z,912.15
2023-04-02T19:21:37.717Z,910.67
2023-04-02T19:24:13.443Z,907.92
2023-04-02T19:26:53.339Z,911.23
2023-04-02T19:29:43.148Z,914.05
2023-04-02T19:32:42.135Z,906.50
2023-04-02T19:35:14.769Z,914.22
2023-04-02T19:37:43.624Z,909.80
2023-04-02T19:40:34.653Z,909.58
2023-04-02T19:43:01.418Z,906.30
2023-04-02T19:45:38.920Z,904.63
2023-04-02T19:48:10.788Z,907.13
2023-04-02T19:50:37.994Z,909.40
2023-04-02T19:53:04.621Z,906.15
2023-04-02T19:55:31.284Z,896.72
2023-04-02T19:58:08.527Z,898.75
2023-04-02T20:00:44.186Z,902.17
2023-04-02T20:03:10.943Z,903.28
2023-04-02T20:05:37.837Z,897.28
2023-04-02T20:08:04.801Z,899.72
2023-04-02T20:10:31.461Z,897.17
2023-04-02T20:12:58.052Z,889.70
2023-04-02T20:15:24.803Z,883.20
2023-04-02T20:17:51.457Z,888.08
2023-04-02T20:20:18.063Z,880.87
2023-04-02T20:22:44.925Z,883.92
2023-04-02T20:25:11.581Z,887.80
2023-04-02T20:27:38.236Z,891.95
2023-04-02T20:30:05.585Z,887.83
2023-04-02T20:32:32.413Z,885.45
2023-04-02T20:34:59.121Z,893.08
2023-04-02T20:37:25.795Z,894.50
2023-04-02T20:39:52.682Z,894.67
2023-04-02T20:42:19.503Z,892.28
2023-04-02T20:44:46.341Z,885.55
2023-04-02T20:47:13.172Z,885.90
2023-04-02T20:49:39.785Z,886.50
2023-04-02T20:52:06.799Z,885.53
2023-04-02T20:54:33.441Z,874.30
2023-04-02T20:57:00.339Z,880.03
2023-04-02T20:59:26.981Z,874.55
2023-04-02T21:01:53.700Z,877.72
2023-04-02T21:04:20.513Z,879.17
2023-04-02T21:06:47.262Z,866.88
2023-04-02T21:09:16.182Z,870.47
2023-04-02T21:11:43.532Z,864.80
2023-04-02T21:14:10.940Z,864.00
2023-04-02T21:16:39.204Z,859.47
2023-04-02T21:19:08.225Z,844.83
2023-04-02T21:21:36.249Z,857.97
2023-04-02T21:24:05.923Z,842.80
2023-04-02T21:26:35.121Z,853.10
2023-04-02T21:29:02.335Z,842.07
2023-04-02T21:31:35.079Z,833.78
2023-04-02T21:34:01.854Z,849.23
2023-04-02T21:36:31.182Z,825.05
2023-04-02T21:39:04.800Z,840.13
2023-04-02T21:41:37.071Z,832.65
2023-04-02T21:44:05.926Z,829.60
2023-04-02T21:46:36.218Z,830.17
2023-04-02T21:49:03.299Z,840.47
2023-04-02T21:51:32.154Z,840.67
2023-04-02T21:54:00.957Z,831.58
2023-04-02T21:56:35.672Z,835.47
2023-04-02T21:59:03.691Z,831.17
2023-04-02T22:01:33.698Z,821.30
2023-04-02T22:04:03.305Z,823.55
2023-04-02T22:06:32.551Z,823.15
2023-04-02T22:09:06.026Z,823.40
2023-04-02T22:11:36.712Z,816.92
2023-04-02T22:14:04.064Z,805.35
2023-04-02T22:16:33.087Z,813.80
2023-04-02T22:19:02.006Z,821.65
2023-04-02T22:21:30.604Z,810.80
2023-04-02T22:24:00.382Z,812.92
2023-04-02T22:26:27.566Z,806.65
2023-04-02T22:28:54.406Z,814.88
2023-04-02T22:31:24.570Z,802.38
2023-04-02T22:33:53.110Z,802.67
2023-04-02T22:36:21.974Z,796.63
2023-04-02T22:38:48.983Z,799.78
2023-04-02T22:41:18.058Z,801.67
2023-04-02T22:43:45.815Z,801.00
2023-04-02T22:46:14.896Z,793.70
2023-04-02T22:48:43.242Z,797.78
2023-04-02T22:51:12.169Z,792.60
2023-04-02T22:53:39.569Z,790.20
2023-04-02T22:56:08.094Z,790.45
2023-04-02T22:58:35.667Z,786.47
